หน้าหลัก
METAR-TAF:

METAR-TAF

ท่าอากาศยาน :

RAF

Tain, สกอตแลนด์

ละติจูด: 57-49N, ลองจิจูด: 003-58W, ความสูง: 4 ม.

การสังเกตสภาพอากาศปัจจุบัน

รายงานได้ทำขึ้นเมื่อ 34 นาทีที่แล้ว ณ เวลา 00:20 UTC
ลม 4 นอตจากตะวันตก/ตะวันตกเฉียงเหนือ
อุณหภูมิ 7°C
ความชื้น 87%
ความกดอากาศ 1021 hPa
ทัศนวิสัย 10 กม. หรือมากกว่า

METAR: EGQA 190020Z AUTO 29004KT 9999 FEW180/// 07/05 Q1021

เวลา: 01:54 (00:54 UTC)


TAF: หายไป

สังเกตการณ์สภาพอากาศและพยากรณ์อากาศของสนามบินมากกว่า 4000 แห่ง (รายงาน METAR และ TAF).

สถานีที่ดูได้จะแสดงไว้ด้วยจุดสีเหลืองและสีแดงบนแผนที่.

เลื่อนเมาส์ไปเหนือจุดเพื่อดูชื่อสถานี.

แล้วคลิกเพื่อดูสังเกตการณ์และการพยากรณ์สภาพอากาศ.

ในการเปลี่ยนแผนที่: คลิกที่ปุ่มสีเขียวที่มีกากบาทสีดำเพื่อซูมเข้า; ที่ปุ่มสีเขียวที่มีขีดเพื่อซูมออก; หรือที่ลูกศรสีเขียวเพื่อไปยังแผนที่ที่อยู่ติดกัน.


METAR-TAF: